createdAt,value
2022-10-29T00:00:12.254Z,13.01
2022-10-29T00:01:14.546Z,12.98
2022-10-29T00:02:16.795Z,12.99
2022-10-29T00:03:19.518Z,12.82
2022-10-29T00:04:21.750Z,12.72
2022-10-29T00:05:24.003Z,12.68
2022-10-29T00:06:26.194Z,12.61
2022-10-29T00:07:28.398Z,12.67
2022-10-29T00:08:32.817Z,12.75
2022-10-29T00:09:35.501Z,12.80
2022-10-29T00:10:37.726Z,12.83
2022-10-29T00:11:40.158Z,12.92
2022-10-29T00:12:42.335Z,12.93
2022-10-29T00:13:45.602Z,13.03
2022-10-29T00:14:47.724Z,13.06
2022-10-29T00:15:49.874Z,13.08
2022-10-29T00:16:52.030Z,13.13
2022-10-29T00:17:54.572Z,13.17
2022-10-29T00:18:58.042Z,13.18
2022-10-29T00:20:00.407Z,13.23
2022-10-29T00:21:05.759Z,13.26
2022-10-29T00:22:08.026Z,13.34
2022-10-29T00:23:10.275Z,13.40
2022-10-29T00:24:12.482Z,13.45
2022-10-29T00:25:14.671Z,13.50
2022-10-29T00:26:18.935Z,13.48
2022-10-29T00:27:21.126Z,13.28
2022-10-29T00:28:23.383Z,13.15
2022-10-29T00:29:25.558Z,13.12
2022-10-29T00:30:27.761Z,13.24
2022-10-29T00:31:31.089Z,13.19
2022-10-29T00:32:33.344Z,13.12
2022-10-29T00:33:35.521Z,13.23
2022-10-29T00:34:38.105Z,13.32
2022-10-29T00:35:40.247Z,13.35
2022-10-29T00:36:42.400Z,13.38
2022-10-29T00:37:44.688Z,13.25
2022-10-29T00:38:46.846Z,13.28
2022-10-29T00:39:49.052Z,13.36
2022-10-29T00:40:51.248Z,13.43
2022-10-29T00:41:53.383Z,13.52
2022-10-29T00:43:12.377Z,13.44
2022-10-29T00:44:14.466Z,13.45
2022-10-29T00:45:20.934Z,13.49
2022-10-29T00:46:31.370Z,13.49
2022-10-29T00:47:37.643Z,13.48
2022-10-29T00:48:45.476Z,13.53
2022-10-29T00:49:53.048Z,13.51
2022-10-29T00:50:57.845Z,13.35
2022-10-29T00:52:04.181Z,13.21
2022-10-29T00:53:06.349Z,13.25
2022-10-29T00:54:11.301Z,13.29
2022-10-29T00:55:15.746Z,13.33
2022-10-29T00:56:18.199Z,13.34
2022-10-29T00:57:36.274Z,13.40
2022-10-29T00:58:39.214Z,13.30
2022-10-29T00:59:43.006Z,13.12
2022-10-29T01:00:45.239Z,13.20
2022-10-29T01:01:49.016Z,13.13
2022-10-29T01:02:51.359Z,13.19
2022-10-29T01:03:55.396Z,13.24
2022-10-29T01:04:57.771Z,13.26
2022-10-29T01:06:02.062Z,13.25
2022-10-29T01:07:05.047Z,13.30
2022-10-29T01:08:07.703Z,13.06
2022-10-29T01:09:09.868Z,13.12
2022-10-29T01:10:12.932Z,13.16
2022-10-29T01:11:36.106Z,12.92
2022-10-29T01:13:02.415Z,13.03
2022-10-29T01:14:23.048Z,13.12
2022-10-29T01:15:37.109Z,13.20
2022-10-29T01:17:09.359Z,13.12
2022-10-29T01:18:21.163Z,12.87
2022-10-29T01:19:57.575Z,12.86
2022-10-29T01:21:24.203Z,12.87
2022-10-29T01:22:55.841Z,12.66
2022-10-29T01:24:11.730Z,12.68
2022-10-29T01:25:35.213Z,12.68
2022-10-29T01:27:11.660Z,12.64
2022-10-29T01:28:22.471Z,12.61
2022-10-29T01:29:58.366Z,12.69
2022-10-29T01:31:19.182Z,12.75
2022-10-29T01:32:39.783Z,12.70
2022-10-29T01:33:53.724Z,12.64
2022-10-29T01:35:04.732Z,12.87
2022-10-29T01:36:12.921Z,12.89
2022-10-29T01:37:20.657Z,12.84
2022-10-29T01:38:28.406Z,12.99
2022-10-29T01:39:45.470Z,13.15
2022-10-29T01:41:08.625Z,13.32
2022-10-29T01:42:41.581Z,13.45
2022-10-29T01:44:00.335Z,13.41
2022-10-29T01:45:11.434Z,13.29
2022-10-29T01:46:24.649Z,13.31
2022-10-29T01:47:32.706Z,13.37
2022-10-29T01:48:39.569Z,13.42
2022-10-29T01:49:45.536Z,13.45
2022-10-29T01:50:52.566Z,13.48
2022-10-29T01:51:56.726Z,13.47
2022-10-29T01:52:59.026Z,13.36
2022-10-29T01:54:05.947Z,13.42
2022-10-29T01:55:08.875Z,13.36
2022-10-29T01:56:11.026Z,13.44
2022-10-29T01:57:25.064Z,13.53
2022-10-29T01:58:27.756Z,13.56
2022-10-29T01:59:43.195Z,13.42
2022-10-29T02:01:24.459Z,13.29
2022-10-29T02:02:47.274Z,13.27
2022-10-29T02:04:21.600Z,13.13
2022-10-29T02:05:45.459Z,13.17
2022-10-29T02:07:03.869Z,13.25
2022-10-29T02:08:44.310Z,13.14
2022-10-29T02:09:57.125Z,13.01
2022-10-29T02:11:08.988Z,13.09
2022-10-29T02:12:24.034Z,13.20
2022-10-29T02:13:31.970Z,13.20
2022-10-29T02:14:40.868Z,13.24
2022-10-29T02:15:48.317Z,13.24
2022-10-29T02:16:51.102Z,13.29
2022-10-29T02:17:53.550Z,13.25
2022-10-29T02:18:57.948Z,13.29
2022-10-29T02:20:08.899Z,13.33
2022-10-29T02:21:11.304Z,13.22
2022-10-29T02:22:13.515Z,13.18
2022-10-29T02:23:16.485Z,13.21
2022-10-29T02:24:18.611Z,13.23
2022-10-29T02:25:21.524Z,13.25
2022-10-29T02:26:23.957Z,13.21
2022-10-29T02:27:26.139Z,13.23
2022-10-29T02:28:28.324Z,13.26
2022-10-29T02:29:30.504Z,13.27
2022-10-29T02:30:33.309Z,13.24
2022-10-29T02:31:36.237Z,13.25
2022-10-29T02:32:38.462Z,13.08
2022-10-29T02:33:40.686Z,12.87
2022-10-29T02:34:42.849Z,12.80
2022-10-29T02:35:45.061Z,12.81
2022-10-29T02:36:47.271Z,12.89
2022-10-29T02:37:49.588Z,12.93
2022-10-29T02:38:51.771Z,12.95
2022-10-29T02:39:53.967Z,13.00
2022-10-29T02:40:56.153Z,12.99
2022-10-29T02:41:58.574Z,12.97
2022-10-29T02:43:00.810Z,13.05
2022-10-29T02:44:03.004Z,13.05
2022-10-29T02:45:05.777Z,12.86
2022-10-29T02:46:15.991Z,12.75
2022-10-29T02:47:18.234Z,12.62
2022-10-29T02:48:21.116Z,12.53
2022-10-29T02:49:23.282Z,12.57
2022-10-29T02:50:25.482Z,12.64
2022-10-29T02:51:27.661Z,12.69
2022-10-29T02:52:29.880Z,12.73
2022-10-29T02:53:32.142Z,12.86
2022-10-29T02:54:34.631Z,12.86
2022-10-29T02:55:36.830Z,12.90
2022-10-29T02:56:39.039Z,12.87
2022-10-29T02:57:44.387Z,12.96
2022-10-29T02:58:46.591Z,12.93
2022-10-29T02:59:48.763Z,12.96
2022-10-29T03:00:51.847Z,13.01
2022-10-29T03:01:54.200Z,12.99
2022-10-29T03:02:56.827Z,12.94
2022-10-29T03:03:59.223Z,12.97
2022-10-29T03:05:01.399Z,12.84
2022-10-29T03:06:03.864Z,12.87
2022-10-29T03:07:06.345Z,12.95
2022-10-29T03:08:08.744Z,12.98
2022-10-29T03:09:11.160Z,13.03
2022-10-29T03:10:13.307Z,13.01
2022-10-29T03:11:15.471Z,13.09
2022-10-29T03:12:17.639Z,13.11
2022-10-29T03:13:19.809Z,13.14
2022-10-29T03:14:21.992Z,13.21
2022-10-29T03:15:24.166Z,13.17
2022-10-29T03:16:26.322Z,13.14
2022-10-29T03:17:28.496Z,13.12
2022-10-29T03:18:30.809Z,13.09
2022-10-29T03:19:32.983Z,13.07
2022-10-29T03:20:35.163Z,13.04
2022-10-29T03:21:37.938Z,13.08
2022-10-29T03:22:40.177Z,13.09
2022-10-29T03:23:42.358Z,13.07
2022-10-29T03:24:44.532Z,13.11
2022-10-29T03:25:55.756Z,13.19
2022-10-29T03:26:58.554Z,13.12
2022-10-29T03:28:00.716Z,13.05
2022-10-29T03:29:02.940Z,12.81
2022-10-29T03:30:05.750Z,12.75
2022-10-29T03:31:07.965Z,12.64
2022-10-29T03:32:10.104Z,12.70
2022-10-29T03:33:12.382Z,12.82
2022-10-29T03:34:14.798Z,12.98
2022-10-29T03:35:17.045Z,13.05
2022-10-29T03:36:19.351Z,13.01
2022-10-29T03:37:21.562Z,12.87
2022-10-29T03:38:24.076Z,12.74
2022-10-29T03:39:26.292Z,12.78
2022-10-29T03:40:28.497Z,12.89
2022-10-29T03:41:30.834Z,12.92
2022-10-29T03:42:33.000Z,12.88
2022-10-29T03:43:36.962Z,12.92
2022-10-29T03:44:39.134Z,12.87
2022-10-29T03:45:41.286Z,12.93
2022-10-29T03:46:43.445Z,13.08
2022-10-29T03:47:45.628Z,13.20
2022-10-29T03:48:50.137Z,13.21
2022-10-29T03:49:52.672Z,13.07
2022-10-29T03:51:01.317Z,13.10
2022-10-29T03:52:03.515Z,13.18
2022-10-29T03:53:05.763Z,13.20
2022-10-29T03:54:07.972Z,12.91
2022-10-29T03:55:10.148Z,12.94
2022-10-29T03:56:12.388Z,13.08
2022-10-29T03:57:14.654Z,13.02
2022-10-29T03:58:17.264Z,13.03
2022-10-29T03:59:19.431Z,13.11
2022-10-29T04:00:21.772Z,13.10
2022-10-29T04:01:24.087Z,13.14
2022-10-29T04:02:26.769Z,13.21
2022-10-29T04:03:31.345Z,13.25
2022-10-29T04:04:33.517Z,13.28
2022-10-29T04:05:35.740Z,13.28
2022-10-29T04:06:37.996Z,13.12
2022-10-29T04:07:40.180Z,13.07
2022-10-29T04:08:42.869Z,13.04
2022-10-29T04:09:45.181Z,12.95
2022-10-29T04:10:49.084Z,12.81
2022-10-29T04:11:51.219Z,12.74
2022-10-29T04:12:53.463Z,12.77
2022-10-29T04:13:55.892Z,12.87
2022-10-29T04:14:58.060Z,12.95
2022-10-29T04:16:00.301Z,13.02
2022-10-29T04:17:02.512Z,12.95
2022-10-29T04:18:04.761Z,13.01
2022-10-29T04:19:07.186Z,13.09
2022-10-29T04:20:21.060Z,13.11
2022-10-29T04:23:25.414Z,13.15
2022-10-29T04:28:43.015Z,12.63
2022-10-29T04:29:45.384Z,12.66
2022-10-29T04:30:47.599Z,12.69
2022-10-29T04:31:49.946Z,12.75
2022-10-29T04:32:56.157Z,12.74
2022-10-29T04:33:58.599Z,12.76
2022-10-29T04:35:01.021Z,12.76
2022-10-29T04:36:04.551Z,12.76
2022-10-29T04:37:06.825Z,12.77
2022-10-29T04:38:10.409Z,12.72
2022-10-29T04:39:12.596Z,12.55
2022-10-29T04:40:14.825Z,12.50
2022-10-29T04:41:17.108Z,12.50
2022-10-29T04:42:19.275Z,12.44
2022-10-29T04:43:21.479Z,12.36
2022-10-29T04:44:23.652Z,12.35
2022-10-29T04:45:25.866Z,12.40
2022-10-29T04:46:28.546Z,12.50
2022-10-29T04:47:30.723Z,12.54
2022-10-29T04:48:33.012Z,12.58
2022-10-29T04:49:35.258Z,12.53
2022-10-29T04:50:38.347Z,12.55
2022-10-29T04:51:40.508Z,12.61
2022-10-29T04:52:42.816Z,12.61
2022-10-29T04:53:44.969Z,12.63
2022-10-29T04:54:47.158Z,12.62
2022-10-29T04:55:49.346Z,12.62
2022-10-29T04:56:51.572Z,12.66
2022-10-29T04:57:54.252Z,12.69
2022-10-29T04:58:56.646Z,12.74
2022-10-29T04:59:58.834Z,12.75
2022-10-29T05:01:02.770Z,12.80
2022-10-29T05:02:05.110Z,12.81
2022-10-29T05:03:07.247Z,12.80
2022-10-29T05:04:09.470Z,12.84
2022-10-29T05:05:11.637Z,12.80
2022-10-29T05:06:13.821Z,12.84
2022-10-29T05:07:16.083Z,12.82
2022-10-29T05:08:18.243Z,12.77
2022-10-29T05:09:20.437Z,12.76
2022-10-29T05:10:22.632Z,12.76
2022-10-29T05:11:24.815Z,12.75
2022-10-29T05:12:26.998Z,12.69
2022-10-29T05:13:29.181Z,12.62
2022-10-29T05:14:31.320Z,12.44
2022-10-29T05:15:34.303Z,12.42
2022-10-29T05:16:36.472Z,12.46
2022-10-29T05:17:38.770Z,12.49
2022-10-29T05:18:40.940Z,12.52
2022-10-29T05:19:43.080Z,12.52
2022-10-29T05:20:45.285Z,12.48
2022-10-29T05:21:47.568Z,12.50
2022-10-29T05:22:49.763Z,12.47
2022-10-29T05:23:53.506Z,12.50
2022-10-29T05:24:55.803Z,12.48
2022-10-29T05:25:58.022Z,12.49
2022-10-29T05:27:00.308Z,12.48
2022-10-29T05:28:13.640Z,12.52
2022-10-29T05:29:15.888Z,12.50
2022-10-29T05:30:18.051Z,12.49
2022-10-29T05:31:20.277Z,12.50
2022-10-29T05:32:22.536Z,12.47
2022-10-29T05:33:25.001Z,12.48
2022-10-29T05:34:27.187Z,12.52
2022-10-29T05:35:29.377Z,12.48
2022-10-29T05:36:31.561Z,12.46
2022-10-29T05:37:33.747Z,12.42
2022-10-29T05:38:36.229Z,12.38
2022-10-29T05:39:41.523Z,12.39
2022-10-29T05:40:45.187Z,12.33
2022-10-29T05:41:47.671Z,12.31
2022-10-29T05:42:50.367Z,12.30
2022-10-29T05:43:55.403Z,12.27
2022-10-29T05:44:57.627Z,12.29
2022-10-29T05:46:02.442Z,12.24
2022-10-29T05:47:07.528Z,12.19
2022-10-29T05:49:19.376Z,12.19
2022-10-29T05:50:22.090Z,12.12
2022-10-29T05:51:24.718Z,12.04
2022-10-29T05:52:26.955Z,11.99
2022-10-29T05:53:29.325Z,11.94
2022-10-29T05:54:31.498Z,11.96
2022-10-29T05:55:34.917Z,12.05
2022-10-29T05:56:37.170Z,12.05
2022-10-29T05:57:39.386Z,11.97
2022-10-29T05:58:42.217Z,11.72
2022-10-29T05:59:44.478Z,11.69
2022-10-29T06:00:46.785Z,11.66
2022-10-29T06:01:49.169Z,11.68
2022-10-29T06:02:51.582Z,11.73
2022-10-29T06:03:56.776Z,11.61
2022-10-29T06:04:59.005Z,11.59
2022-10-29T06:06:04.337Z,11.64
2022-10-29T06:07:06.618Z,11.68
2022-10-29T06:08:09.051Z,11.69
2022-10-29T06:09:11.204Z,11.70
2022-10-29T06:10:13.704Z,11.79
2022-10-29T06:11:16.023Z,11.79
2022-10-29T06:12:18.195Z,11.84
2022-10-29T06:13:22.195Z,11.86
2022-10-29T06:14:24.488Z,11.87
2022-10-29T06:15:29.812Z,11.88
2022-10-29T06:16:32.031Z,11.91
2022-10-29T06:17:34.217Z,11.96
2022-10-29T06:18:36.489Z,11.97
2022-10-29T06:20:46.177Z,11.95
2022-10-29T06:21:48.412Z,11.97
2022-10-29T06:22:58.087Z,11.99
2022-10-29T06:24:00.609Z,12.09
2022-10-29T06:25:03.253Z,12.10
2022-10-29T06:26:06.097Z,11.99
2022-10-29T06:27:08.539Z,12.09
2022-10-29T06:28:15.024Z,12.06
2022-10-29T06:29:17.230Z,12.16
2022-10-29T06:30:19.561Z,12.25
2022-10-29T06:31:22.073Z,12.29
2022-10-29T06:32:24.264Z,12.33
2022-10-29T06:33:26.538Z,12.40
2022-10-29T06:34:29.242Z,12.42
2022-10-29T06:35:31.955Z,12.39
2022-10-29T06:36:34.305Z,12.52
2022-10-29T06:37:37.971Z,12.54
2022-10-29T06:38:40.234Z,12.48
2022-10-29T06:39:42.423Z,12.59
2022-10-29T06:40:53.301Z,12.62
2022-10-29T06:41:55.854Z,12.70
2022-10-29T06:42:59.784Z,12.79
2022-10-29T06:44:02.475Z,12.86
2022-10-29T06:45:04.955Z,12.89
2022-10-29T06:46:07.445Z,12.79
2022-10-29T06:47:09.654Z,12.62
2022-10-29T06:48:11.810Z,12.60
2022-10-29T06:49:14.044Z,12.68
2022-10-29T06:50:16.277Z,12.72
2022-10-29T06:51:18.533Z,12.67
2022-10-29T06:52:20.750Z,12.58
2022-10-29T06:53:22.969Z,12.50
2022-10-29T06:54:25.232Z,12.51
2022-10-29T06:55:28.659Z,12.52
2022-10-29T06:56:31.095Z,12.70
2022-10-29T06:57:33.423Z,12.96
2022-10-29T06:58:35.600Z,13.14
2022-10-29T06:59:37.891Z,13.24
2022-10-29T07:00:41.446Z,13.18
2022-10-29T07:01:43.945Z,13.13
2022-10-29T07:02:46.169Z,13.20
2022-10-29T07:03:48.901Z,13.20
2022-10-29T07:04:51.157Z,13.21
2022-10-29T07:05:57.593Z,13.28
2022-10-29T07:06:59.781Z,13.35
2022-10-29T07:08:02.442Z,13.45
2022-10-29T07:09:04.767Z,13.48
2022-10-29T07:10:08.034Z,13.43
2022-10-29T07:11:10.305Z,13.60
2022-10-29T07:12:12.554Z,13.86
2022-10-29T07:13:14.733Z,14.04
2022-10-29T07:14:16.928Z,13.95
2022-10-29T07:15:19.112Z,13.86
2022-10-29T07:16:21.278Z,13.78
2022-10-29T07:17:23.505Z,13.72
2022-10-29T07:18:25.753Z,13.80
2022-10-29T07:19:27.957Z,13.78
2022-10-29T07:20:32.859Z,13.91
2022-10-29T07:21:35.067Z,13.94
2022-10-29T07:22:37.230Z,13.79
2022-10-29T07:23:39.592Z,13.73
2022-10-29T07:24:43.311Z,13.99
2022-10-29T07:25:45.603Z,14.17
2022-10-29T07:26:47.908Z,14.31
2022-10-29T07:27:50.166Z,14.30
2022-10-29T07:28:56.812Z,14.23
2022-10-29T07:29:59.062Z,14.27
2022-10-29T07:31:01.621Z,14.28
2022-10-29T07:32:04.182Z,14.45
2022-10-29T07:33:06.377Z,14.46
2022-10-29T07:34:08.595Z,14.44
2022-10-29T07:35:10.888Z,14.58
2022-10-29T07:36:13.024Z,14.92
2022-10-29T07:37:15.173Z,15.13
2022-10-29T07:38:17.344Z,15.42
2022-10-29T07:39:19.571Z,15.48
2022-10-29T07:40:21.990Z,15.36
2022-10-29T07:41:24.256Z,15.28
2022-10-29T07:42:26.477Z,15.20
2022-10-29T07:43:28.723Z,15.30
2022-10-29T07:44:30.911Z,15.30
2022-10-29T07:45:33.791Z,15.07
2022-10-29T07:46:36.112Z,15.00
2022-10-29T07:47:38.541Z,15.08
2022-10-29T07:48:40.713Z,15.28
2022-10-29T07:49:42.901Z,15.55
2022-10-29T07:50:45.215Z,15.61
2022-10-29T07:51:48.722Z,15.35
2022-10-29T07:52:51.115Z,15.42
2022-10-29T07:53:53.384Z,15.43
2022-10-29T07:54:55.596Z,15.32
2022-10-29T07:55:58.156Z,15.31
2022-10-29T07:57:00.301Z,15.26
2022-10-29T07:58:05.692Z,15.35
2022-10-29T07:59:09.143Z,15.43
2022-10-29T08:00:12.966Z,15.51
2022-10-29T08:01:15.169Z,15.41
2022-10-29T08:02:17.556Z,15.58
2022-10-29T08:03:19.805Z,15.60
2022-10-29T08:04:22.029Z,15.67
2022-10-29T08:05:25.487Z,15.67
2022-10-29T08:06:27.763Z,15.63
2022-10-29T08:07:29.907Z,15.70
2022-10-29T08:08:34.723Z,15.73
2022-10-29T08:09:36.917Z,15.67
2022-10-29T08:10:39.347Z,15.64
2022-10-29T08:11:41.604Z,15.76
2022-10-29T08:13:01.983Z,15.96
2022-10-29T08:14:04.347Z,16.06
2022-10-29T08:15:07.231Z,16.14
2022-10-29T08:16:09.390Z,16.26
2022-10-29T08:17:11.577Z,16.48
2022-10-29T08:18:17.760Z,16.91
2022-10-29T08:19:20.198Z,17.23
2022-10-29T08:20:23.579Z,17.65
2022-10-29T08:21:25.824Z,17.94
2022-10-29T08:22:30.906Z,18.09
2022-10-29T08:23:33.184Z,17.88
2022-10-29T08:24:35.346Z,18.17
2022-10-29T08:25:41.307Z,18.17
2022-10-29T08:26:43.502Z,18.52
2022-10-29T08:27:45.742Z,18.44
2022-10-29T08:28:48.021Z,18.01
2022-10-29T08:29:50.759Z,18.11
2022-10-29T08:30:52.936Z,18.14
2022-10-29T08:31:55.114Z,18.09
2022-10-29T08:32:58.200Z,18.33
2022-10-29T08:34:00.585Z,18.39
2022-10-29T08:35:03.377Z,18.59
2022-10-29T08:36:05.703Z,18.57
2022-10-29T08:37:07.889Z,18.55
2022-10-29T08:38:10.060Z,18.71
2022-10-29T08:39:12.280Z,18.63
2022-10-29T08:40:29.183Z,18.77
2022-10-29T08:42:14.612Z,18.69
2022-10-29T08:43:25.754Z,18.74
2022-10-29T08:44:57.148Z,18.64
2022-10-29T08:45:59.523Z,18.74
2022-10-29T08:47:15.065Z,19.05
2022-10-29T08:48:35.820Z,19.28
2022-10-29T08:49:46.281Z,19.52
2022-10-29T08:50:53.479Z,19.45
2022-10-29T08:52:11.782Z,19.42
2022-10-29T08:53:25.179Z,19.36
2022-10-29T08:54:34.144Z,19.72
2022-10-29T08:55:38.005Z,20.04
2022-10-29T08:56:52.551Z,19.90
2022-10-29T08:58:04.780Z,19.42
2022-10-29T08:59:14.900Z,19.07
2022-10-29T09:00:20.900Z,18.64
2022-10-29T09:01:24.010Z,18.54
2022-10-29T09:02:26.372Z,18.53
2022-10-29T09:03:32.157Z,18.73
2022-10-29T09:04:36.575Z,18.71
2022-10-29T09:06:00.638Z,18.52
2022-10-29T09:07:19.982Z,18.58
2022-10-29T09:08:40.703Z,18.42
2022-10-29T09:10:17.996Z,18.31
2022-10-29T09:11:41.514Z,18.35
2022-10-29T09:13:02.530Z,18.29
2022-10-29T09:14:28.328Z,18.20
2022-10-29T09:15:41.262Z,18.18
2022-10-29T09:16:48.601Z,18.04
2022-10-29T09:18:16.314Z,18.00
2022-10-29T09:19:24.149Z,18.14
2022-10-29T09:20:50.719Z,17.85
2022-10-29T09:22:03.278Z,17.81
2022-10-29T09:23:12.560Z,17.89
2022-10-29T09:26:05.288Z,18.32
2022-10-29T09:27:39.485Z,18.42
2022-10-29T09:29:26.069Z,18.77
2022-10-29T09:33:22.732Z,18.74
2022-10-29T09:34:38.153Z,18.75
2022-10-29T09:35:45.240Z,18.77
2022-10-29T09:36:47.697Z,19.00
2022-10-29T09:37:54.650Z,19.22
2022-10-29T09:39:02.354Z,19.21
2022-10-29T09:40:13.206Z,19.35
2022-10-29T09:41:16.086Z,19.45
2022-10-29T09:42:26.440Z,19.29
2022-10-29T09:43:54.515Z,19.58
2022-10-29T09:44:58.954Z,19.57
2022-10-29T09:46:13.510Z,19.68
2022-10-29T09:47:31.797Z,19.92
2022-10-29T09:48:40.507Z,19.91
2022-10-29T09:50:07.169Z,20.40
2022-10-29T09:51:26.394Z,20.52
2022-10-29T09:52:35.798Z,20.38
2022-10-29T09:53:39.324Z,20.37
2022-10-29T09:54:42.478Z,20.30
2022-10-29T09:55:53.227Z,20.48
2022-10-29T09:56:57.014Z,20.37
2022-10-29T09:57:59.227Z,20.50
2022-10-29T09:59:20.378Z,20.39
2022-10-29T10:00:31.315Z,20.63
2022-10-29T10:01:33.861Z,20.46
2022-10-29T10:02:42.389Z,20.57
2022-10-29T10:03:54.551Z,20.78
2022-10-29T10:05:03.468Z,20.69
2022-10-29T10:06:11.157Z,20.70
2022-10-29T10:07:18.276Z,20.74
2022-10-29T10:10:22.978Z,21.44
2022-10-29T10:11:30.954Z,21.61
2022-10-29T10:12:38.935Z,21.43
2022-10-29T10:14:01.438Z,21.10
2022-10-29T10:15:05.675Z,20.98
2022-10-29T10:16:07.820Z,21.45
2022-10-29T10:17:10.041Z,21.55
2022-10-29T10:19:49.815Z,21.32
2022-10-29T10:21:28.112Z,21.37
2022-10-29T10:22:30.391Z,21.04
2022-10-29T10:23:52.782Z,21.34
2022-10-29T10:24:54.982Z,21.46
2022-10-29T10:26:03.773Z,21.58
2022-10-29T10:27:33.699Z,21.75
2022-10-29T10:28:36.921Z,21.60
2022-10-29T10:29:39.115Z,21.48
2022-10-29T10:31:15.011Z,21.72
2022-10-29T10:32:18.932Z,21.77
2022-10-29T10:33:26.191Z,21.55
2022-10-29T10:34:34.325Z,21.77
2022-10-29T10:35:38.236Z,21.66
2022-10-29T10:36:43.876Z,21.68
2022-10-29T10:37:46.135Z,21.78
2022-10-29T10:38:51.895Z,21.88
2022-10-29T10:40:03.405Z,21.65
2022-10-29T10:41:08.570Z,21.47
2022-10-29T10:42:26.757Z,21.50
2022-10-29T10:43:29.043Z,21.39
2022-10-29T10:44:31.534Z,21.57
2022-10-29T10:45:39.098Z,21.42
2022-10-29T10:46:43.524Z,21.63
2022-10-29T10:48:11.469Z,22.18
2022-10-29T10:49:29.218Z,22.29
2022-10-29T10:51:38.784Z,21.76
2022-10-29T10:53:35.760Z,21.78
2022-10-29T10:54:59.772Z,22.00
2022-10-29T10:56:03.071Z,22.09
2022-10-29T10:57:11.187Z,22.20
2022-10-29T10:58:28.477Z,22.22
2022-10-29T10:59:52.200Z,22.01
2022-10-29T11:00:59.363Z,22.00
2022-10-29T11:02:47.837Z,22.17
2022-10-29T11:04:03.356Z,22.20
2022-10-29T11:05:40.636Z,22.29
2022-10-29T11:06:48.297Z,22.48
2022-10-29T11:07:56.692Z,22.56
2022-10-29T11:09:32.744Z,22.40
2022-10-29T11:10:42.011Z,22.51
2022-10-29T11:11:59.046Z,22.71
2022-10-29T11:13:09.185Z,22.66
2022-10-29T11:14:36.518Z,22.24
2022-10-29T11:16:15.506Z,22.19
2022-10-29T11:17:31.090Z,22.40
2022-10-29T11:19:10.834Z,22.30
2022-10-29T11:20:23.967Z,22.42
2022-10-29T11:21:36.745Z,22.39
2022-10-29T11:22:53.543Z,22.60
2022-10-29T11:24:04.802Z,22.74
2022-10-29T11:25:16.677Z,22.59
2022-10-29T11:26:40.596Z,22.73
2022-10-29T11:28:03.249Z,22.77
2022-10-29T11:29:20.598Z,22.81
2022-10-29T11:30:23.235Z,22.76
2022-10-29T11:31:47.107Z,22.61
2022-10-29T11:33:23.073Z,22.21
2022-10-29T11:34:47.153Z,21.97
2022-10-29T11:36:06.189Z,21.63
2022-10-29T11:37:29.421Z,21.74
2022-10-29T11:38:33.878Z,21.72
2022-10-29T11:39:51.178Z,21.69
2022-10-29T11:41:04.805Z,21.93
2022-10-29T11:42:09.755Z,21.92
2022-10-29T11:43:14.405Z,21.96
2022-10-29T11:44:20.122Z,21.91
2022-10-29T11:45:54.023Z,22.01
2022-10-29T11:47:27.049Z,21.98
2022-10-29T11:48:49.318Z,22.09
2022-10-29T11:50:08.358Z,22.33
2022-10-29T11:51:53.686Z,22.50
2022-10-29T11:53:17.836Z,22.67
2022-10-29T11:54:19.978Z,22.80
2022-10-29T11:55:35.769Z,22.92
2022-10-29T11:56:52.697Z,22.95
2022-10-29T11:58:11.061Z,22.82
2022-10-29T11:59:13.381Z,22.71
2022-10-29T12:00:21.368Z,22.80
2022-10-29T12:01:34.285Z,22.90
2022-10-29T12:03:04.136Z,22.55
2022-10-29T12:04:23.109Z,22.76
2022-10-29T12:05:44.633Z,22.70
2022-10-29T12:07:15.414Z,22.84
2022-10-29T12:08:41.229Z,23.17
2022-10-29T12:09:58.739Z,22.94
2022-10-29T12:11:55.528Z,22.82
2022-10-29T12:13:28.300Z,22.65
2022-10-29T12:14:54.154Z,22.81
2022-10-29T12:16:09.546Z,23.01
2022-10-29T12:17:32.550Z,22.84
2022-10-29T12:19:15.756Z,22.89
2022-10-29T12:20:36.939Z,22.80
2022-10-29T12:21:58.364Z,23.01
2022-10-29T12:23:11.968Z,23.14
2022-10-29T12:24:32.775Z,23.36
2022-10-29T12:26:07.904Z,23.36
2022-10-29T12:27:27.109Z,23.43
2022-10-29T12:28:45.036Z,23.49
2022-10-29T12:30:06.010Z,23.58
2022-10-29T12:31:40.229Z,23.66
2022-10-29T12:33:10.195Z,23.80
2022-10-29T12:34:22.567Z,23.51
2022-10-29T12:35:37.317Z,23.47
2022-10-29T12:37:13.285Z,23.53
2022-10-29T12:38:41.880Z,23.64
2022-10-29T12:39:51.474Z,23.57
2022-10-29T12:41:01.258Z,23.48
2022-10-29T12:42:22.855Z,23.45
2022-10-29T12:43:29.544Z,23.38
2022-10-29T12:44:51.607Z,23.43
2022-10-29T12:46:21.315Z,23.56
2022-10-29T12:47:37.460Z,23.47
2022-10-29T12:48:51.476Z,23.47
2022-10-29T12:50:26.005Z,23.54
2022-10-29T12:51:53.256Z,23.78
2022-10-29T12:53:06.931Z,23.62
2022-10-29T12:54:15.255Z,23.73
2022-10-29T12:55:18.096Z,23.87
2022-10-29T12:56:20.993Z,23.92
2022-10-29T12:57:32.457Z,23.99
2022-10-29T12:58:56.991Z,24.02
2022-10-29T13:00:45.786Z,23.90
2022-10-29T13:04:03.300Z,23.82
2022-10-29T13:05:11.402Z,23.67
2022-10-29T13:06:52.439Z,23.64
2022-10-29T13:07:57.775Z,23.63
2022-10-29T13:09:19.174Z,23.66
2022-10-29T13:10:24.551Z,23.77
2022-10-29T13:11:43.520Z,23.77
2022-10-29T13:13:18.217Z,23.77
2022-10-29T13:14:25.079Z,23.90
2022-10-29T13:15:49.876Z,23.93
2022-10-29T13:16:53.121Z,23.95
2022-10-29T13:17:59.713Z,24.03
2022-10-29T13:19:12.832Z,24.04
2022-10-29T13:20:21.436Z,24.03
2022-10-29T13:21:58.174Z,23.99
2022-10-29T13:23:03.920Z,23.94
2022-10-29T13:24:16.481Z,23.86
2022-10-29T13:25:33.573Z,23.82
2022-10-29T13:27:00.706Z,23.82
2022-10-29T13:28:08.659Z,23.83
2022-10-29T13:29:10.898Z,23.86
2022-10-29T13:30:25.610Z,23.90
2022-10-29T13:31:27.886Z,23.94
2022-10-29T13:32:37.771Z,23.81
2022-10-29T13:33:39.967Z,23.80
2022-10-29T13:34:55.499Z,23.79
2022-10-29T13:36:02.001Z,23.77
2022-10-29T13:37:36.081Z,23.77
2022-10-29T13:38:58.408Z,23.84
2022-10-29T13:40:26.242Z,23.90
2022-10-29T13:41:39.874Z,23.95
2022-10-29T13:42:42.375Z,23.94
2022-10-29T13:44:04.519Z,24.00
2022-10-29T13:45:11.984Z,23.92
2022-10-29T13:46:25.398Z,23.91
2022-10-29T13:47:28.540Z,23.93
2022-10-29T13:48:34.882Z,23.99
2022-10-29T13:49:36.994Z,23.98
2022-10-29T13:50:40.738Z,23.96
2022-10-29T13:51:49.913Z,24.01
2022-10-29T13:52:56.712Z,24.00
2022-10-29T13:54:06.196Z,24.04
2022-10-29T13:55:09.495Z,24.08
2022-10-29T13:56:18.747Z,24.11
2022-10-29T13:57:50.762Z,24.18
2022-10-29T13:58:53.897Z,24.25
2022-10-29T14:00:05.230Z,24.20
2022-10-29T14:01:11.436Z,24.32
2022-10-29T14:02:28.728Z,24.32
2022-10-29T14:03:59.553Z,24.34
2022-10-29T14:05:13.174Z,24.38
2022-10-29T14:06:29.426Z,24.33
2022-10-29T14:07:42.873Z,24.32
2022-10-29T14:08:50.736Z,24.32
2022-10-29T14:09:56.293Z,24.21
2022-10-29T14:10:59.528Z,24.19
2022-10-29T14:12:05.307Z,24.13
2022-10-29T14:13:25.783Z,24.09
2022-10-29T14:14:42.557Z,24.05
2022-10-29T14:16:07.435Z,24.08
2022-10-29T14:17:17.448Z,24.04
2022-10-29T14:18:26.501Z,23.97
2022-10-29T14:19:28.639Z,23.94
2022-10-29T14:20:30.814Z,23.94
2022-10-29T14:21:38.512Z,23.90
2022-10-29T14:22:43.178Z,23.86
2022-10-29T14:24:02.665Z,23.89
2022-10-29T14:25:27.523Z,23.78
2022-10-29T14:26:35.787Z,23.74
2022-10-29T14:27:37.958Z,23.62
2022-10-29T14:28:40.231Z,23.47
2022-10-29T14:29:42.542Z,23.44
2022-10-29T14:30:46.476Z,23.39
2022-10-29T14:32:03.890Z,23.24
2022-10-29T14:33:26.759Z,23.21
2022-10-29T14:34:29.096Z,23.15
2022-10-29T14:35:31.484Z,23.16
2022-10-29T14:36:39.424Z,23.13
2022-10-29T14:37:43.943Z,23.15
2022-10-29T14:38:51.527Z,23.12
2022-10-29T14:40:00.248Z,23.17
2022-10-29T14:41:02.851Z,23.17
2022-10-29T14:42:16.847Z,23.09
2022-10-29T14:43:25.915Z,22.94
2022-10-29T14:44:32.894Z,22.92
2022-10-29T14:45:35.089Z,22.89
2022-10-29T14:46:38.571Z,22.75
2022-10-29T14:47:41.138Z,22.65
2022-10-29T14:48:59.336Z,22.67
2022-10-29T14:50:06.481Z,22.75
2022-10-29T14:51:18.656Z,22.73
2022-10-29T14:52:41.120Z,22.73
2022-10-29T14:53:43.312Z,22.73
2022-10-29T14:54:51.034Z,22.70
2022-10-29T14:55:53.451Z,22.69
2022-10-29T14:57:07.356Z,22.60
2022-10-29T14:58:12.510Z,22.55
2022-10-29T14:59:26.465Z,22.48
2022-10-29T15:00:35.753Z,22.45